LIMF/TRN METAR and TAF weather

Enter ICAO airport designator
Station Type Date Time Source
LIMF METAR 2021/09/25 02:50 UTC NOAA

LIMF 250250Z 9999 FEW030 17/14 Q1020


Station Type Date Time Source
LIMF Decoded METAR 2021/09/25 02:50 UTC NOAA

Torino / Caselle, Italy (LIMF) 45-13N 007-39E 287M
Sep 24, 2021 - 10:50 PM EDT / 2021.09.25 0250 UTC
Visibility: greater than 7 mile(s):0
Sky conditions: mostly clear
Temperature: 62 F (17 C)
Dew Point: 57 F (14 C)
Relative Humidity: 82%
Pressure (altimeter): 30.12 in. Hg (1020 hPa)
ob: LIMF 250250Z 9999 FEW030 17/14 Q1020
cycle: 3

Station Type Date Time Source
LIMF TAF 2021/09/24 18:22 UTC NOAA

TAF LIMF 241700Z 2418/2518 VRB05KT 9999 FEW040

Example: see airport list